METAR Data
IDs: Format: Raw Decoded Include TAF

Data at: 0811 UTC 03 Aug 2021

KSFO 030805Z 29014KT 10SM FEW002 BKN005 13/12 A3005 RMK AO2 T01280117 $
KSFO 030756Z 29013KT 10SM FEW002 SCT005 13/12 A3005 RMK AO2 SLP176 T01330117 402170128 $
KSFO 030656Z 29015KT 10SM FEW006 13/12 A3005 RMK AO2 SLP174 T01330117 $
KSFO 030556Z 28017KT 10SM FEW008 FEW200 14/12 A3005 RMK AO2 SLP175 T01390117 10206 20139 50007 $
KSFO 030456Z 29017KT 10SM FEW008 SCT200 14/12 A3005 RMK AO2 SLP175 T01440117 $
KSFO 030356Z 29019KT 10SM FEW018 SCT200 16/12 A3003 RMK AO2 SLP170 T01560117 $
KSFO 030256Z 29020KT 10SM FEW018 BKN200 17/12 A3003 RMK AO2 SLP168 T01670117 56006 $
KSFO 030156Z 29018KT 10SM FEW015 BKN200 18/12 A3003 RMK AO2 SLP168 T01830122 $
KSFO 030056Z 29019KT 10SM FEW013 BKN200 18/12 A3003 RMK AO2 SLP170 T01780122 $
KSFO 022356Z 30020KT 10SM FEW180 BKN200 20/12 A3004 RMK AO2 SLP173 T02000117 10217 20194 56012 $
KSFO 022256Z 30018KT 10SM FEW180 BKN200 21/11 A3005 RMK AO2 PK WND 30026/2231 SLP175 T02110111 $
KSFO 022156Z 30018KT 10SM SCT200 21/12 A3007 RMK AO2 SLP181 T02110117 $
KSFO 022056Z 31016KT 10SM FEW020 21/12 A3008 RMK AO2 SLP185 T02110117 58010 $
KSFO 021956Z 32013KT 10SM FEW020 21/12 A3009 RMK AO2 SLP189 T02110117 $
KSFO 021856Z 32012KT 10SM FEW020 20/12 A3010 RMK AO2 SLP194 T02000117 $
KSFO 021756Z 33008KT 10SM FEW020 19/12 A3011 RMK AO2 SLP195 T01940117 10194 20150 58003 $
KSFO 021656Z 35008KT 10SM FEW006 SCT020 19/12 A3011 RMK AO2 SLP196 T01890117 $
KSFO 021647Z 35008KT 10SM FEW006 SCT021 18/12 A3011 RMK AO2 T01830117 $
KSFO 021556Z 00000KT 10SM BKN018 17/12 A3012 RMK AO2 SLP199 T01670122 $
KSFO 021502Z 00000KT 10SM FEW006 BKN021 BKN160 17/12 A3012 RMK AO2 T01670117 $
KSFO 021456Z 00000KT 10SM FEW002 SCT020 BKN160 16/12 A3012 RMK AO2 SLP198 T01610117 52015 $
KSFO 021356Z 25005KT 10SM FEW006 FEW160 16/12 A3010 RMK AO2 SLP193 T01560117 $
KSFO 021256Z 26006KT 10SM FEW008 FEW019 15/11 A3009 RMK AO2 SLP188 T01500111 $
KSFO 021156Z 28004KT 10SM SCT019 15/11 A3007 RMK AO2 SLP183 T01500111 10167 20150 56003 $
KSFO 021056Z 24004KT 10SM FEW012 FEW180 16/11 A3007 RMK AO2 SLP184 T01560111 $
KSFO 020956Z 24004KT 10SM FEW012 16/11 A3007 RMK AO2 SLP183 T01560111 $
KSFO 020856Z 24006KT 10SM FEW014 16/12 A3008 RMK AO2 SLP186 T01610117 58001 $
KSFO 020756Z 25008KT 10SM FEW014 17/12 A3009 RMK AO2 SLP188 T01670117 402280144 $
KSFO 020656Z 25007KT 10SM FEW014 17/12 A3009 RMK AO2 SLP189 T01670117 $
KSFO 020556Z 25010KT 10SM FEW015 17/12 A3008 RMK AO2 SLP187 T01670117 10217 20167 53009 $
KSFO 020456Z 27010KT 10SM FEW015 17/12 A3008 RMK AO2 SLP184 T01720117 $
KSFO 020356Z 27012KT 10SM FEW021 FEW180 17/12 A3006 RMK AO2 SLP178 T01720117 $
KSFO 020256Z 26014KT 10SM FEW021 FEW180 18/12 A3006 RMK AO2 SLP177 T01830117 53006 $
KSFO 020156Z 28016KT 10SM FEW019 SCT180 20/11 A3004 RMK AO2 SLP173 T02000111 $
KSFO 020056Z 26016KT 10SM FEW017 FEW180 21/12 A3004 RMK AO2 SLP171 T02110117 $
KSFO 012356Z 29018G25KT 10SM FEW017 FEW180 22/12 A3004 RMK AO2 SLP171 T02170122 10228 20194 58006 $
KSFO 012256Z 29014KT 10SM FEW020 FEW180 22/12 A3005 RMK AO2 SLP175 T02220122 $
KSFO 012156Z 28014KT 10SM FEW023 FEW180 23/12 A3006 RMK AO2 SLP178 T02280122 $
KSFO 012056Z 30014KT 10SM FEW010 FEW028 23/12 A3006 RMK AO2 SLP178 T02280122 56006 $